CMA CGM G.washington — MAPY4 — position and weather

sailwx.info

Track history (hours):
 
Tides and Currents Weather Stations Pressure Air Temp Water Temp Dewpoint Dewpoint Depression Visibility Wind Speed Wind Dir Waves Ship Positions

CMA CGM G.washington

Last reported at 2017-Oct-17 09:50 UTC. Time now 2017-Oct-17 13:16 UTC.
Position N 22°08' E 114°18'.

Length 366 m; draft 12 m.

Type: Ship (hazmat cat A). MMSI: 232006508.

Date/timePositionNaut miles runAvg speedWind from/ knotsBaromVisibWave heightAir tempDewpointWater temp
2017-Oct-17 09:50N 22°08' E 114°18'412.9
2017-Oct-17 09:30N 22°08' E 114°22'815.2
2017-Oct-17 09:00N 22°09' E 114°30'713.4
2017-Oct-17 08:30N 22°09' E 114°38'714.9
2017-Oct-17 08:01N 22°11' E 114°45'917.2
2017-Oct-17 07:31N 22°13' E 114°54'918.4
2017-Oct-17 07:01N 22°14' E 115°04'918.3
2017-Oct-17 06:31N 22°16' E 115°14'1218.4
2017-Oct-17 05:53N 22°18' E 115°26'18817.2
2017-Oct-16 18:57N 23°48' E 118°26'  
Track history (hours):
 
Tides and Currents Weather Stations Pressure Air Temp Water Temp Dewpoint Dewpoint Depression Visibility Wind Speed Wind Dir Waves Ship Positions

CMA CGM G.washington

Last reported at 2017-Oct-17 09:50 UTC. Time now 2017-Oct-17 13:16 UTC.
Position N 22°08' E 114°18'.

Length 366 m; draft 12 m.

Type: Ship (hazmat cat A). MMSI: 232006508.

Date/timePositionNaut miles runAvg speedWind from/ knotsBaromVisibWave heightAir tempDewpointWater temp
2017-Oct-17 09:50N 22°08' E 114°18'412.9
2017-Oct-17 09:30N 22°08' E 114°22'815.2
2017-Oct-17 09:00N 22°09' E 114°30'713.4
2017-Oct-17 08:30N 22°09' E 114°38'714.9
2017-Oct-17 08:01N 22°11' E 114°45'917.2
2017-Oct-17 07:31N 22°13' E 114°54'918.4
2017-Oct-17 07:01N 22°14' E 115°04'918.3
2017-Oct-17 06:31N 22°16' E 115°14'1218.4
2017-Oct-17 05:53N 22°18' E 115°26'18817.2
2017-Oct-16 18:57N 23°48' E 118°26'  

Dump ship's entire track history